Airfield :
LOGIN :

Register | Disclaimer

   EN    FR    IT 

 










Legend :    VFR   Marginal VFR   IFR   Intensive IFR   Very Intensive IFR
Visi :
Ceiling :
>= 8 km
>= 3000ft
5 to 8 km
1000 to 3000 ft
1500m to 5 km
500 to 1000 ft
800 to 1500m
200 to 500 ft
< 800m
< 200 ft
Symbols :   Thunderstorms  Fog  Heavy snow  Heavy precipitations  Wind > 20 kt
SIGMETs :     Misc.  Thunderstorms  Icing  Turbulence  Mountain Waves  Volcanic Ashes







- Airport Elevation : 247 ft
- IATA code : BLL


EKBI - Billund

CURRENT METAR :
  • 281620Z 25014KT 9999 VCSH FEW020 SCT025CB BKN085 15/12 Q1007

EXPIRED METARs :
  • 281550Z 24014KT 9999 SCT020 SCT025CB BKN085 18/12 Q1006 RESHRA
  • 281520Z 23011KT 210V270 9999 FEW020TCU FEW025 BKN085 17/12 Q1006
  • 281450Z 23010KT 9999 FEW021 BKN080 17/13 Q1006
  • 281420Z 24011KT 210V270 9999 FEW025 BKN070 17/12 Q1006
  • 281350Z 25013KT 9999 FEW025CB BKN065 17/12 Q1006

TAF TAF EKBI
Valid from the 28 at 06:00 until the 29 at 06:00 UTC


280504Z 2806/2906 16006KT 9999 SCT020
TEMPO 2806/2816 SHRA BKN012 SCT015CB
PROB40 2806/2816 4000 TSRA
BECMG 2811/2813 24012KT
TEMPO 2816/2824 -SHRA SCT015TCU
BECMG 2904/2906 16012KT 3000 RA BR BKN005
No reported NOTAMs for that airfield.



MET'MAP, your aeronautical weather chart ! - Copyright ORBIFLY December 2007 - Disclaimer

ORBIFLY MET'MAP TEAM :

Programming & Development : Alexandra Zaïnal
Concept & Development : Baudouin d'Aumeries
Co-Development & Prog : Marc-Olivier Méhu
Technical & hardware support : Manuel Goepfert

Contact : metmap@orbifly.com




SOURCES & CREDITS :

   NOAA